createdAt,value
2023-05-01T00:01:44.174Z,0.63
2023-05-01T00:06:49.717Z,0.53
2023-05-01T00:11:55.535Z,0.43
2023-05-01T00:17:01.592Z,0.37
2023-05-01T00:22:07.067Z,0.29
2023-05-01T00:27:12.766Z,0.19
2023-05-01T00:32:18.181Z,0.12
2023-05-01T00:37:23.730Z,0.08
2023-05-01T00:42:29.271Z,0.02
2023-05-01T00:47:36.620Z,-0.03
2023-05-01T00:52:42.783Z,-0.07
2023-05-01T00:57:48.264Z,-0.12
2023-05-01T01:02:53.868Z,-0.15
2023-05-01T01:08:05.471Z,-0.17
2023-05-01T01:13:15.066Z,-0.21
2023-05-01T01:18:25.739Z,-0.23
2023-05-01T01:23:50.970Z,-0.27
2023-05-01T01:29:13.583Z,-0.32
2023-05-01T01:34:21.827Z,-0.37
2023-05-01T01:39:30.402Z,-0.42
2023-05-01T01:44:39.447Z,-0.47
2023-05-01T01:49:48.130Z,-0.49
2023-05-01T01:54:56.060Z,-0.42
2023-05-01T02:00:01.643Z,-0.32
2023-05-01T02:05:08.872Z,-0.16
2023-05-01T02:10:15.180Z,-0.02
2023-05-01T02:15:21.961Z,0.09
2023-05-01T02:20:28.075Z,0.08
2023-05-01T02:25:36.013Z,0.02
2023-05-01T02:30:41.849Z,-0.08
2023-05-01T02:35:48.409Z,-0.17
2023-05-01T02:40:56.253Z,-0.27
2023-05-01T02:46:04.832Z,-0.37
2023-05-01T02:51:11.423Z,-0.48
2023-05-01T02:56:17.423Z,-0.59
2023-05-01T03:01:23.292Z,-0.69
2023-05-01T03:06:29.355Z,-0.78
2023-05-01T03:11:35.000Z,-0.89
2023-05-01T03:16:41.873Z,-0.99
2023-05-01T03:21:47.428Z,-1.06
2023-05-01T03:26:53.017Z,-1.11
2023-05-01T03:31:58.617Z,-1.15
2023-05-01T03:37:04.453Z,-1.16
2023-05-01T03:42:09.881Z,-1.14
2023-05-01T03:47:19.875Z,-1.09
2023-05-01T03:52:26.570Z,-1.00
2023-05-01T03:57:33.327Z,-0.88
2023-05-01T04:02:38.968Z,-0.72
2023-05-01T04:07:44.572Z,-0.51
2023-05-01T04:12:50.350Z,-0.21
2023-05-01T04:17:57.040Z,0.37
2023-05-01T04:23:03.102Z,1.29
2023-05-01T04:28:09.062Z,2.13
2023-05-01T04:33:14.442Z,2.97
2023-05-01T04:38:20.022Z,3.97
2023-05-01T04:43:27.742Z,4.93
2023-05-01T04:48:33.386Z,5.63
2023-05-01T04:53:39.108Z,6.10
2023-05-01T04:58:51.120Z,6.43
2023-05-01T05:03:59.542Z,6.77
2023-05-01T05:09:06.550Z,7.27
2023-05-01T05:14:12.706Z,7.89
2023-05-01T05:19:18.816Z,8.48
2023-05-01T05:24:24.422Z,9.14
2023-05-01T05:29:29.823Z,9.78
2023-05-01T05:34:35.825Z,10.39
2023-05-01T05:39:41.680Z,11.18
2023-05-01T05:44:47.396Z,11.72
2023-05-01T05:49:53.447Z,12.29
2023-05-01T05:54:59.185Z,12.47
2023-05-01T06:00:05.861Z,12.51
2023-05-01T06:05:17.941Z,12.40
2023-05-01T06:10:23.632Z,12.40
2023-05-01T06:15:29.684Z,12.15
2023-05-01T06:20:37.415Z,11.90
2023-05-01T06:25:44.427Z,11.80
2023-05-01T06:30:49.895Z,11.72
2023-05-01T06:35:56.443Z,11.95
2023-05-01T06:41:02.287Z,12.21
2023-05-01T06:46:07.858Z,12.55
2023-05-01T06:51:15.091Z,12.66
2023-05-01T06:56:21.761Z,13.21
2023-05-01T07:01:27.705Z,13.87
2023-05-01T07:06:33.626Z,14.39
2023-05-01T07:11:39.829Z,14.67
2023-05-01T07:16:46.210Z,15.35
2023-05-01T07:21:51.738Z,15.66
2023-05-01T07:26:58.078Z,16.22
2023-05-01T07:32:06.093Z,17.28
2023-05-01T07:37:11.864Z,18.08
2023-05-01T07:42:17.553Z,18.83
2023-05-01T07:47:23.481Z,19.56
2023-05-01T07:52:29.021Z,20.43
2023-05-01T07:57:34.625Z,21.10
2023-05-01T08:02:41.324Z,21.24
2023-05-01T08:07:47.138Z,20.75
2023-05-01T08:12:52.762Z,20.89
2023-05-01T08:17:58.479Z,21.42
2023-05-01T08:23:04.100Z,21.51
2023-05-01T08:28:09.663Z,21.50
2023-05-01T08:33:15.131Z,20.92
2023-05-01T08:38:20.523Z,21.01
2023-05-01T08:43:26.488Z,21.11
2023-05-01T08:48:33.244Z,20.31
2023-05-01T08:53:39.931Z,19.38
2023-05-01T08:58:46.744Z,19.00
2023-05-01T09:03:53.864Z,18.68
2023-05-01T09:08:59.361Z,18.34
2023-05-01T09:14:05.811Z,18.11
2023-05-01T09:19:11.414Z,17.96
2023-05-01T09:24:16.852Z,17.68
2023-05-01T09:29:39.667Z,17.32
2023-05-01T09:34:45.402Z,17.20
2023-05-01T09:39:51.006Z,17.19
2023-05-01T09:44:56.614Z,17.19
2023-05-01T09:50:02.168Z,17.19
2023-05-01T09:55:15.082Z,17.22
2023-05-01T10:00:22.394Z,17.13
2023-05-01T10:05:28.218Z,16.89
2023-05-01T10:10:33.781Z,16.85
2023-05-01T10:15:39.164Z,16.64
2023-05-01T10:20:44.570Z,16.20
2023-05-01T10:25:52.582Z,16.03
2023-05-01T10:30:58.771Z,15.98
2023-05-01T10:36:05.150Z,15.81
2023-05-01T10:41:10.907Z,15.76
2023-05-01T10:46:29.982Z,15.57
2023-05-01T10:51:36.226Z,15.51
2023-05-01T10:56:45.039Z,15.65
2023-05-01T11:01:52.084Z,15.59
2023-05-01T11:07:11.522Z,15.43
2023-05-01T11:12:17.859Z,15.58
2023-05-01T11:17:46.096Z,15.81
2023-05-01T11:22:52.312Z,16.03
2023-05-01T11:27:58.841Z,16.24
2023-05-01T11:33:05.799Z,16.25
2023-05-01T11:38:20.436Z,16.14
2023-05-01T11:43:26.454Z,16.20
2023-05-01T11:48:32.730Z,16.30
2023-05-01T11:53:38.254Z,16.22
2023-05-01T11:58:44.084Z,16.27
2023-05-01T12:03:50.728Z,16.34
2023-05-01T12:08:56.516Z,16.25
2023-05-01T12:14:02.207Z,16.18
2023-05-01T12:19:08.013Z,16.18
2023-05-01T12:24:16.243Z,16.21
2023-05-01T12:29:22.167Z,16.18
2023-05-01T12:34:33.514Z,16.10
2023-05-01T12:39:40.426Z,16.11
2023-05-01T12:44:46.229Z,16.30
2023-05-01T12:49:51.871Z,16.47
2023-05-01T12:55:04.920Z,16.49
2023-05-01T13:00:11.502Z,16.40
2023-05-01T13:05:17.162Z,16.35
2023-05-01T13:10:33.167Z,16.52
2023-05-01T13:15:39.083Z,16.61
2023-05-01T13:20:44.910Z,16.59
2023-05-01T13:25:57.212Z,16.61
2023-05-01T13:31:02.706Z,16.59
2023-05-01T13:36:14.495Z,16.60
2023-05-01T13:41:31.030Z,16.66
2023-05-01T13:46:37.167Z,16.76
2023-05-01T13:51:45.083Z,16.80
2023-05-01T13:56:50.502Z,16.84
2023-05-01T14:01:56.250Z,16.93
2023-05-01T14:07:01.835Z,16.96
2023-05-01T14:12:10.271Z,16.97
2023-05-01T14:17:16.026Z,17.04
2023-05-01T14:22:22.421Z,17.07
2023-05-01T14:27:28.067Z,17.11
2023-05-01T14:32:38.370Z,17.26
2023-05-01T14:37:43.831Z,17.27
2023-05-01T14:42:49.647Z,17.16
2023-05-01T14:47:55.338Z,17.07
2023-05-01T14:53:01.647Z,17.05
2023-05-01T14:58:07.541Z,16.98
2023-05-01T15:03:13.377Z,16.97
2023-05-01T15:08:19.322Z,17.03
2023-05-01T15:13:24.974Z,17.11
2023-05-01T15:18:30.545Z,17.09
2023-05-01T15:23:37.209Z,17.02
2023-05-01T15:28:43.121Z,17.00
2023-05-01T15:33:50.585Z,17.00
2023-05-01T15:38:56.058Z,17.00
2023-05-01T15:44:01.510Z,17.00
2023-05-01T15:49:08.791Z,17.01
2023-05-01T15:54:14.544Z,17.02
2023-05-01T15:59:20.091Z,17.00
2023-05-01T16:04:25.709Z,16.96
2023-05-01T16:09:32.509Z,16.90
2023-05-01T16:14:41.261Z,16.78
2023-05-01T16:19:46.881Z,16.67
2023-05-01T16:24:52.590Z,16.60
2023-05-01T16:29:58.504Z,16.54
2023-05-01T16:35:05.690Z,16.48
2023-05-01T16:40:16.726Z,16.48
2023-05-01T16:45:22.547Z,16.52
2023-05-01T16:50:28.034Z,16.55
2023-05-01T16:55:33.567Z,16.54
2023-05-01T17:00:40.086Z,16.51
2023-05-01T17:05:45.499Z,16.46
2023-05-01T17:10:50.980Z,16.40
2023-05-01T17:15:56.515Z,16.33
2023-05-01T17:21:02.203Z,16.27
2023-05-01T17:26:07.874Z,16.19
2023-05-01T17:31:14.066Z,16.10
2023-05-01T17:36:23.828Z,16.00
2023-05-01T17:41:29.319Z,15.90
2023-05-01T17:46:35.578Z,15.80
2023-05-01T17:51:41.101Z,15.68
2023-05-01T17:56:46.566Z,15.56
2023-05-01T18:01:52.113Z,15.42
2023-05-01T18:06:58.334Z,15.26
2023-05-01T18:12:04.046Z,15.09
2023-05-01T18:17:09.584Z,14.93
2023-05-01T18:22:15.318Z,14.75
2023-05-01T18:27:20.935Z,14.56
2023-05-01T18:32:39.360Z,14.38
2023-05-01T18:37:52.211Z,14.19
2023-05-01T18:42:57.753Z,14.01
2023-05-01T18:48:03.957Z,13.82
2023-05-01T18:53:09.518Z,13.66
2023-05-01T18:58:15.244Z,13.50
2023-05-01T19:03:20.712Z,13.37
2023-05-01T19:08:26.298Z,13.25
2023-05-01T19:13:31.996Z,13.13
2023-05-01T19:18:38.489Z,13.00
2023-05-01T19:23:45.153Z,12.86
2023-05-01T19:28:51.151Z,12.70
2023-05-01T19:33:56.796Z,12.54
2023-05-01T19:39:02.246Z,12.39
2023-05-01T19:44:08.205Z,12.26
2023-05-01T19:49:13.701Z,12.14
2023-05-01T19:54:19.261Z,12.02
2023-05-01T19:59:24.730Z,11.92
2023-05-01T20:04:30.682Z,11.82
2023-05-01T20:09:36.134Z,11.73
2023-05-01T20:14:41.586Z,11.65
2023-05-01T20:19:47.142Z,11.58
2023-05-01T20:24:52.662Z,11.49
2023-05-01T20:29:58.426Z,11.40
2023-05-01T20:35:04.622Z,11.33
2023-05-01T20:40:11.748Z,11.27
2023-05-01T20:45:17.892Z,11.20
2023-05-01T20:50:23.549Z,11.14
2023-05-01T20:55:30.160Z,11.07
2023-05-01T21:00:35.738Z,11.00
2023-05-01T21:05:41.318Z,10.92
2023-05-01T21:10:46.729Z,10.82
2023-05-01T21:15:52.847Z,10.73
2023-05-01T21:21:01.782Z,10.65
2023-05-01T21:26:07.340Z,10.56
2023-05-01T21:31:13.471Z,10.48
2023-05-01T21:36:19.465Z,10.41
2023-05-01T21:41:25.186Z,10.34
2023-05-01T21:46:30.837Z,10.27
2023-05-01T21:51:36.459Z,10.21
2023-05-01T21:56:42.111Z,10.17
2023-05-01T22:01:47.944Z,10.11
2023-05-01T22:06:54.080Z,10.03
2023-05-01T22:11:59.956Z,9.95
2023-05-01T22:17:05.625Z,9.87
2023-05-01T22:22:11.230Z,9.80
2023-05-01T22:27:17.194Z,9.76
2023-05-01T22:32:22.770Z,9.73
2023-05-01T22:37:28.341Z,9.72
2023-05-01T22:42:33.827Z,9.69
2023-05-01T22:47:39.288Z,9.68
2023-05-01T22:52:46.479Z,9.66
2023-05-01T22:57:52.128Z,9.64
2023-05-01T23:02:57.724Z,9.61
2023-05-01T23:08:04.145Z,9.58
2023-05-01T23:13:17.601Z,9.55
2023-05-01T23:18:25.677Z,9.53
2023-05-01T23:23:31.979Z,9.51
2023-05-01T23:28:41.026Z,9.52
2023-05-01T23:33:46.640Z,9.50
2023-05-01T23:38:51.988Z,9.47
2023-05-01T23:43:57.399Z,9.45
2023-05-01T23:49:02.963Z,9.43
2023-05-01T23:54:08.360Z,9.43
2023-05-01T23:59:15.036Z,9.43
